Time;durP1;ratioP1;P1;durP2;ratioP2;P2;SDS_P1;SDS_P2;PMS_P1;PMS_P2;Temp;Humidity;BMP_temperature;BMP_pressure;BME280_temperature;BME280_humidity;BME280_pressure;Samples;Min_cycle;Max_cycle;Signal;HPM_P1;HPM_P2
2021/03/30 00:01:55;;;;;;;;;;;16.60;56.60;;;;;;4897426;29;19999;-62
2021/03/30 00:04:21;;;;;;;;;;;16.60;56.50;;;;;;4897359;29;19914;-62
2021/03/30 00:06:46;;;;;;;;;;;16.60;56.60;;;;;;4897968;29;19970;-62
2021/03/30 00:09:12;;;;;;;;;;;16.70;56.70;;;;;;4897386;29;19908;-61
2021/03/30 00:11:38;;;;;;;;;;;16.60;56.60;;;;;;4897632;29;19983;-62
2021/03/30 00:14:04;;;;;;;;;;;16.50;56.50;;;;;;4897083;29;19912;-62
2021/03/30 00:16:30;;;;;;;;;;;16.80;56.70;;;;;;4897172;29;20381;-61
2021/03/30 00:18:56;;;;;;;;;;;16.70;56.70;;;;;;4897075;29;19918;-62
2021/03/30 00:21:21;;;;;;;;;;;16.80;56.70;;;;;;4897175;29;19907;-61
2021/03/30 00:23:46;;;;;;;;;;;16.60;56.60;;;;;;4897047;29;20002;-62
2021/03/30 00:26:12;;;;;;;;;;;16.70;56.70;;;;;;4896982;29;19915;-62
2021/03/30 00:28:37;;;;;;;;;;;16.50;56.60;;;;;;4897302;29;19999;-62
2021/03/30 00:31:03;;;;;;;;;;;16.60;56.70;;;;;;4897230;29;19963;-62
2021/03/30 00:33:28;;;;;;;;;;;16.70;56.70;;;;;;4896959;29;19908;-62
2021/03/30 00:35:54;;;;;;;;;;;16.60;56.70;;;;;;4897184;29;20297;-62
2021/03/30 00:38:19;;;;;;;;;;;16.60;56.70;;;;;;4897113;29;20636;-62
2021/03/30 00:40:45;;;;;;;;;;;16.60;56.70;;;;;;4896801;29;19912;-62
2021/03/30 00:43:10;;;;;;;;;;;16.50;56.60;;;;;;4880077;29;19911;-62
2021/03/30 00:45:36;;;;;;;;;;;16.40;56.60;;;;;;4897141;29;20354;-62
2021/03/30 00:48:01;;;;;;;;;;;16.60;56.60;;;;;;4896814;29;19907;-62
2021/03/30 00:50:33;;;;;;;;;;;16.70;56.70;;;;;;4896813;29;19907;-61
2021/03/30 00:53:00;;;;;;;;;;;16.70;56.70;;;;;;4899133;29;19917;-62
2021/03/30 00:55:25;;;;;;;;;;;16.60;56.70;;;;;;4900544;29;20337;-61
2021/03/30 00:57:51;;;;;;;;;;;16.70;56.70;;;;;;4900524;29;19908;-62
2021/03/30 01:00:17;;;;;;;;;;;16.60;56.70;;;;;;4900368;29;19907;-62
2021/03/30 01:02:43;;;;;;;;;;;16.70;56.70;;;;;;4900283;29;20571;-61
2021/03/30 01:05:09;;;;;;;;;;;16.60;56.70;;;;;;4883385;29;19907;-61
2021/03/30 01:07:35;;;;;;;;;;;16.70;56.70;;;;;;4900588;29;19920;-62
2021/03/30 01:10:08;;;;;;;;;;;16.50;56.60;;;;;;4900204;29;19918;-62
2021/03/30 01:12:44;;;;;;;;;;;16.50;56.60;;;;;;4900384;29;19915;-62
2021/03/30 01:15:16;;;;;;;;;;;16.60;56.60;;;;;;4899949;29;19944;-61
2021/03/30 01:18:02;;;;;;;;;;;16.60;56.60;;;;;;4900013;29;20453;-62
2021/03/30 01:20:48;;;;;;;;;;;16.50;56.70;;;;;;4886583;29;19907;-62
2021/03/30 01:23:14;;;;;;;;;;;16.60;56.60;;;;;;4883087;29;20011;-62
2021/03/30 01:25:43;;;;;;;;;;;16.50;56.70;;;;;;4899863;29;20002;-61
2021/03/30 01:28:11;;;;;;;;;;;16.50;56.70;;;;;;4899843;29;19958;-61
2021/03/30 01:30:37;;;;;;;;;;;16.60;56.70;;;;;;4900082;29;19930;-62
2021/03/30 01:33:08;;;;;;;;;;;16.60;56.80;;;;;;4899726;29;20279;-62
2021/03/30 01:35:34;;;;;;;;;;;16.50;56.80;;;;;;4899750;29;19922;-62
2021/03/30 01:38:00;;;;;;;;;;;16.60;56.80;;;;;;4899700;29;19907;-61
2021/03/30 01:40:27;;;;;;;;;;;16.60;56.90;;;;;;4899755;29;20378;-62
2021/03/30 01:42:53;;;;;;;;;;;16.30;56.70;;;;;;4899731;29;19930;-62
2021/03/30 01:45:19;;;;;;;;;;;16.40;56.70;;;;;;4899652;29;20524;-62
2021/03/30 01:47:45;;;;;;;;;;;16.50;56.80;;;;;;4899504;29;20278;-62
2021/03/30 01:50:12;;;;;;;;;;;16.60;56.90;;;;;;4899778;29;19911;-62
2021/03/30 01:52:38;;;;;;;;;;;16.50;56.80;;;;;;4899731;29;19942;-62
2021/03/30 01:55:06;;;;;;;;;;;16.40;56.80;;;;;;4899316;29;19976;-62
2021/03/30 01:57:31;;;;;;;;;;;16.60;56.90;;;;;;4899171;29;19908;-62
2021/03/30 01:59:58;;;;;;;;;;;17.00;57.20;;;;;;4899567;29;19908;-61
2021/03/30 02:02:24;;;;;;;;;;;16.40;56.90;;;;;;4898990;29;19911;-62
2021/03/30 02:04:50;;;;;;;;;;;16.30;56.80;;;;;;4899319;29;20235;-61
2021/03/30 02:07:16;;;;;;;;;;;16.50;56.90;;;;;;4899683;29;19923;-62
2021/03/30 02:09:44;;;;;;;;;;;16.50;56.90;;;;;;4899101;29;19907;-62
2021/03/30 02:12:15;;;;;;;;;;;16.40;56.90;;;;;;4899081;29;20255;-62
2021/03/30 02:14:47;;;;;;;;;;;16.50;56.90;;;;;;4905260;29;20026;-62
2021/03/30 02:17:21;;;;;;;;;;;16.50;56.90;;;;;;4898888;29;19911;-62
2021/03/30 02:20:08;;;;;;;;;;;16.50;56.90;;;;;;4899283;29;20332;-62
2021/03/30 02:22:49;;;;;;;;;;;16.40;57.60;;;;;;4860715;29;19914;-62
2021/03/30 02:25:15;;;;;;;;;;;16.40;56.90;;;;;;4899072;29;19942;-62
2021/03/30 02:27:41;;;;;;;;;;;16.40;56.90;;;;;;4898801;29;19914;-62
2021/03/30 02:30:08;;;;;;;;;;;16.40;57.00;;;;;;4898715;29;19908;-62
2021/03/30 02:32:34;;;;;;;;;;;16.50;57.00;;;;;;4898571;29;19914;-62
2021/03/30 02:35:02;;;;;;;;;;;16.40;57.00;;;;;;4898579;29;20026;-61
2021/03/30 02:37:28;;;;;;;;;;;16.30;56.90;;;;;;4898665;29;19907;-61
2021/03/30 02:39:53;;;;;;;;;;;16.30;56.90;;;;;;4898559;29;20366;-62
2021/03/30 02:42:19;;;;;;;;;;;16.40;57.00;;;;;;4898650;29;19907;-62
2021/03/30 02:44:47;;;;;;;;;;;16.40;57.00;;;;;;4898499;29;19908;-62
2021/03/30 02:47:13;;;;;;;;;;;16.40;56.90;;;;;;4898452;29;19955;-62
2021/03/30 02:49:40;;;;;;;;;;;16.40;56.90;;;;;;4898758;29;19908;-61
2021/03/30 02:52:06;;;;;;;;;;;16.30;56.90;;;;;;4898544;29;19913;-62
2021/03/30 02:54:31;;;;;;;;;;;16.40;56.90;;;;;;4898279;29;19919;-61
2021/03/30 02:56:58;;;;;;;;;;;16.40;57.00;;;;;;4898295;29;19912;-61
2021/03/30 02:59:25;;;;;;;;;;;16.40;56.90;;;;;;4898469;29;19908;-62
2021/03/30 03:01:50;;;;;;;;;;;16.40;56.90;;;;;;4898405;29;20018;-62
2021/03/30 03:04:16;;;;;;;;;;;16.40;57.00;;;;;;4898418;29;20307;-61
2021/03/30 03:06:43;;;;;;;;;;;16.30;56.80;;;;;;4898495;29;19957;-62
2021/03/30 03:09:09;;;;;;;;;;;17.00;57.20;;;;;;4898146;29;19924;-61
2021/03/30 03:11:36;;;;;;;;;;;16.30;56.90;;;;;;4898388;29;20015;-62
2021/03/30 03:14:02;;;;;;;;;;;16.40;56.90;;;;;;4897822;29;19993;-62
2021/03/30 03:16:27;;;;;;;;;;;16.30;56.80;;;;;;4897715;29;19911;-62
2021/03/30 03:18:53;;;;;;;;;;;16.30;56.90;;;;;;4898289;29;19931;-62
2021/03/30 03:21:21;;;;;;;;;;;16.30;56.80;;;;;;4897966;29;19958;-62
2021/03/30 03:23:46;;;;;;;;;;;16.30;56.90;;;;;;4897969;29;20342;-62
2021/03/30 03:26:12;;;;;;;;;;;16.30;56.80;;;;;;4897883;29;20040;-62
2021/03/30 03:28:39;;;;;;;;;;;16.40;56.90;;;;;;4898173;29;19935;-62
2021/03/30 03:31:04;;;;;;;;;;;16.10;56.70;;;;;;4881093;29;20244;-61
2021/03/30 03:33:30;;;;;;;;;;;16.50;57.00;;;;;;4898024;29;19931;-62
2021/03/30 03:36:14;;;;;;;;;;;16.20;56.80;;;;;;4898101;29;19923;-62
2021/03/30 03:38:40;;;;;;;;;;;16.40;56.90;;;;;;4898180;29;19954;-62
2021/03/30 03:41:06;;;;;;;;;;;16.10;56.80;;;;;;4897985;29;19994;-62
2021/03/30 03:43:32;;;;;;;;;;;16.10;56.80;;;;;;4897874;29;20067;-62
2021/03/30 03:45:58;;;;;;;;;;;16.30;56.90;;;;;;4897846;29;20002;-61
2021/03/30 03:48:30;;;;;;;;;;;16.10;56.80;;;;;;4897727;29;19908;-62
2021/03/30 03:50:58;;;;;;;;;;;16.10;56.80;;;;;;4897457;29;19911;-62
2021/03/30 03:53:25;;;;;;;;;;;16.20;56.80;;;;;;4897850;29;20390;-61
2021/03/30 03:55:52;;;;;;;;;;;16.30;56.90;;;;;;4897544;29;19916;-62
2021/03/30 03:58:20;;;;;;;;;;;16.10;56.80;;;;;;4897570;29;19908;-62
2021/03/30 04:00:46;;;;;;;;;;;16.30;56.90;;;;;;4897805;29;19915;-62
2021/03/30 04:03:22;;;;;;;;;;;16.20;56.90;;;;;;4897579;29;19908;-60
2021/03/30 04:06:01;;;;;;;;;;;16.30;56.80;;;;;;4897727;29;20282;-62
2021/03/30 04:08:28;;;;;;;;;;;16.20;56.80;;;;;;4897734;29;19930;-61
2021/03/30 04:10:55;;;;;;;;;;;16.20;56.80;;;;;;4897245;29;19908;-61
2021/03/30 04:13:21;;;;;;;;;;;16.30;56.90;;;;;;4897287;29;20151;-61
2021/03/30 04:15:47;;;;;;;;;;;16.20;56.90;;;;;;4897211;29;20402;-62
2021/03/30 04:18:12;;;;;;;;;;;16.00;56.80;;;;;;4897225;29;19932;-61
2021/03/30 04:20:37;;;;;;;;;;;16.20;56.90;;;;;;4897222;29;19919;-62
2021/03/30 04:23:04;;;;;;;;;;;16.00;56.80;;;;;;4897401;29;19907;-62
2021/03/30 04:25:29;;;;;;;;;;;16.30;57.00;;;;;;4897443;29;19911;-61
2021/03/30 04:27:55;;;;;;;;;;;16.10;56.80;;;;;;4901248;29;19954;-62
2021/03/30 04:30:22;;;;;;;;;;;16.20;56.90;;;;;;4901000;29;20033;-61
2021/03/30 04:32:47;;;;;;;;;;;16.20;56.80;;;;;;4900890;29;19907;-62
2021/03/30 04:35:13;;;;;;;;;;;16.10;56.80;;;;;;4901008;29;19916;-62
2021/03/30 04:37:39;;;;;;;;;;;16.20;56.90;;;;;;4883980;29;20366;-62
2021/03/30 04:40:05;;;;;;;;;;;16.20;56.90;;;;;;4900819;29;19907;-61
2021/03/30 04:42:31;;;;;;;;;;;16.20;56.90;;;;;;4900955;29;19907;-62
2021/03/30 04:44:56;;;;;;;;;;;16.10;56.90;;;;;;4900731;29;19911;-62
2021/03/30 04:47:23;;;;;;;;;;;16.20;56.90;;;;;;4900669;29;19911;-62
2021/03/30 04:49:49;;;;;;;;;;;15.90;56.80;;;;;;4900627;29;19911;-61
2021/03/30 04:52:15;;;;;;;;;;;16.10;56.90;;;;;;4900585;29;20441;-62
2021/03/30 04:54:40;;;;;;;;;;;16.00;56.80;;;;;;4900722;29;19971;-62
2021/03/30 04:57:06;;;;;;;;;;;16.00;56.80;;;;;;4900659;29;20010;-62
2021/03/30 04:59:31;;;;;;;;;;;16.10;56.90;;;;;;4900456;29;19912;-62
2021/03/30 05:01:57;;;;;;;;;;;15.90;56.80;;;;;;4883434;29;19907;-62
2021/03/30 05:04:23;;;;;;;;;;;16.00;56.90;;;;;;4900597;29;20438;-62
2021/03/30 05:06:48;;;;;;;;;;;15.90;56.80;;;;;;4900164;29;19911;-62
2021/03/30 05:09:14;;;;;;;;;;;16.00;56.90;;;;;;4900689;29;19967;-62
2021/03/30 05:11:39;;;;;;;;;;;16.00;56.90;;;;;;4900171;29;19915;-62
2021/03/30 05:14:05;;;;;;;;;;;16.10;57.00;;;;;;4900020;29;19958;-62
2021/03/30 05:16:30;;;;;;;;;;;16.10;57.20;;;;;;4883263;29;19962;-61
2021/03/30 05:18:56;;;;;;;;;;;16.10;57.30;;;;;;4899996;29;19918;-62
2021/03/30 05:21:22;;;;;;;;;;;16.10;57.20;;;;;;4900021;29;19927;-62
2021/03/30 05:23:47;;;;;;;;;;;16.10;57.30;;;;;;4900090;29;19913;-62
2021/03/30 05:26:13;;;;;;;;;;;15.90;57.20;;;;;;4899902;29;20307;-62
2021/03/30 05:28:39;;;;;;;;;;;16.10;57.30;;;;;;4899870;29;19994;-62
2021/03/30 05:31:04;;;;;;;;;;;15.80;57.20;;;;;;4899810;29;19998;-62
2021/03/30 05:33:29;;;;;;;;;;;16.00;57.40;;;;;;4899762;29;19915;-61
2021/03/30 05:35:55;;;;;;;;;;;16.00;57.50;;;;;;4899786;29;19922;-61
2021/03/30 05:38:21;;;;;;;;;;;16.00;57.50;;;;;;4899271;29;19915;-61
2021/03/30 05:40:46;;;;;;;;;;;16.00;57.60;;;;;;4899854;29;19922;-62
2021/03/30 05:43:12;;;;;;;;;;;16.00;57.70;;;;;;4899827;29;19911;-61
2021/03/30 05:45:37;;;;;;;;;;;15.90;57.60;;;;;;4899797;29;19914;-62
2021/03/30 05:48:08;;;;;;;;;;;16.00;58.40;;;;;;4899492;29;19955;-62
2021/03/30 05:50:34;;;;;;;;;;;16.00;58.10;;;;;;4899675;29;19963;-61
2021/03/30 05:53:06;;;;;;;;;;;16.70;58.40;;;;;;4899301;29;19907;-62
2021/03/30 05:55:32;;;;;;;;;;;16.00;58.10;;;;;;4905065;29;20271;-61
2021/03/30 05:57:59;;;;;;;;;;;16.00;58.00;;;;;;4881648;29;20283;-62
2021/03/30 06:00:25;;;;;;;;;;;16.00;58.00;;;;;;4899215;29;19908;-61
2021/03/30 06:02:54;;;;;;;;;;;15.80;57.90;;;;;;4899054;29;19907;-61
2021/03/30 06:05:20;;;;;;;;;;;16.00;58.00;;;;;;4899193;29;19915;-61
2021/03/30 06:07:46;;;;;;;;;;;16.00;58.00;;;;;;4899649;29;19912;-62
2021/03/30 06:10:16;;;;;;;;;;;16.00;58.00;;;;;;4899389;29;20010;-62
2021/03/30 06:12:42;;;;;;;;;;;16.00;58.00;;;;;;4899105;29;19911;-62
2021/03/30 06:15:09;;;;;;;;;;;15.90;58.00;;;;;;4899009;29;20386;-64
2021/03/30 06:17:40;;;;;;;;;;;16.00;58.00;;;;;;4899092;29;20272;-64
2021/03/30 06:20:07;;;;;;;;;;;16.00;58.30;;;;;;4899110;29;20014;-62
2021/03/30 06:22:44;;;;;;;;;;;16.00;58.60;;;;;;4899063;29;19914;-62
2021/03/30 06:25:09;;;;;;;;;;;16.00;58.40;;;;;;4899139;29;19907;-62
2021/03/30 06:27:35;;;;;;;;;;;16.00;58.30;;;;;;4898677;29;19914;-61
2021/03/30 06:30:00;;;;;;;;;;;15.90;58.30;;;;;;4881902;29;19911;-61
2021/03/30 06:32:27;;;;;;;;;;;16.00;58.40;;;;;;4898378;29;19923;-61
2021/03/30 06:34:58;;;;;;;;;;;15.90;58.50;;;;;;4898761;29;19979;-61
2021/03/30 06:37:34;;;;;;;;;;;16.00;58.50;;;;;;4904943;29;19907;-61
2021/03/30 06:40:10;;;;;;;;;;;16.00;58.50;;;;;;4898797;29;19907;-61
2021/03/30 06:42:40;;;;;;;;;;;16.00;58.60;;;;;;4898737;29;19971;-61
2021/03/30 06:45:13;;;;;;;;;;;15.80;58.60;;;;;;4898395;29;19907;-61
2021/03/30 06:47:39;;;;;;;;;;;16.00;58.80;;;;;;4898686;29;20317;-61
2021/03/30 06:50:08;;;;;;;;;;;16.00;58.80;;;;;;4880568;29;19911;-62
2021/03/30 06:52:35;;;;;;;;;;;16.00;58.90;;;;;;4898330;29;19914;-61
2021/03/30 06:55:05;;;;;;;;;;;16.00;58.70;;;;;;4898160;29;19915;-61
2021/03/30 06:57:43;;;;;;;;;;;16.00;58.80;;;;;;4898167;29;20322;-61
2021/03/30 07:00:27;;;;;;;;;;;16.10;59.00;;;;;;4898383;29;19941;-61
2021/03/30 07:02:54;;;;;;;;;;;16.10;59.30;;;;;;4898111;29;19907;-61
2021/03/30 07:05:28;;;;;;;;;;;16.00;59.60;;;;;;4898266;29;19911;-61
2021/03/30 07:07:55;;;;;;;;;;;16.10;59.40;;;;;;4898478;29;20371;-62
2021/03/30 07:10:43;;;;;;;;;;;16.00;59.10;;;;;;4834379;27;7856599;-60
2021/03/30 07:13:09;;;;;;;;;;;16.20;59.10;;;;;;5110040;28;19912;-60
2021/03/30 07:15:35;;;;;;;;;;;16.20;59.10;;;;;;5091622;28;19966;-60
2021/03/30 07:18:00;;;;;;;;;;;16.20;58.80;;;;;;5109994;28;20374;-60
2021/03/30 07:20:26;;;;;;;;;;;16.10;58.60;;;;;;5110218;28;19924;-60
2021/03/30 07:22:54;;;;;;;;;;;16.10;58.60;;;;;;5109934;28;19919;-59
2021/03/30 07:25:21;;;;;;;;;;;16.20;58.70;;;;;;5109803;28;19912;-59
2021/03/30 07:27:54;;;;;;;;;;;16.40;58.80;;;;;;5109829;28;19912;-58
2021/03/30 07:30:20;;;;;;;;;;;16.40;58.90;;;;;;5091408;28;19920;-59
2021/03/30 07:33:04;;;;;;;;;;;16.40;58.80;;;;;;5109777;28;19960;-59
2021/03/30 07:35:30;;;;;;;;;;;16.40;58.70;;;;;;5091475;28;20266;-59
2021/03/30 07:38:03;;;;;;;;;;;16.50;58.70;;;;;;5109705;28;20413;-59
2021/03/30 07:40:29;;;;;;;;;;;16.50;58.60;;;;;;5091405;28;19915;-59
2021/03/30 07:42:56;;;;;;;;;;;16.40;58.60;;;;;;5109671;28;19908;-59
2021/03/30 07:45:22;;;;;;;;;;;16.60;58.80;;;;;;5110169;28;20004;-59
2021/03/30 07:47:49;;;;;;;;;;;16.60;58.70;;;;;;5109500;28;19915;-59
2021/03/30 07:50:16;;;;;;;;;;;16.50;58.70;;;;;;5109069;28;19938;-59
2021/03/30 07:52:45;;;;;;;;;;;16.50;58.70;;;;;;5109355;28;19908;-59
2021/03/30 07:55:21;;;;;;;;;;;16.70;58.80;;;;;;5109554;28;19954;-59
2021/03/30 07:57:57;;;;;;;;;;;16.80;58.20;;;;;;5109192;28;20429;-59
2021/03/30 08:00:31;;;;;;;;;;;16.80;58.60;;;;;;5090899;28;20339;-59
2021/03/30 08:03:01;;;;;;;;;;;16.80;58.50;;;;;;5109068;28;20393;-59
2021/03/30 08:05:27;;;;;;;;;;;16.90;58.50;;;;;;5109408;28;20261;-63
2021/03/30 08:07:53;;;;;;;;;;;16.90;58.60;;;;;;5109357;28;20327;-61
2021/03/30 08:10:26;;;;;;;;;;;17.00;58.50;;;;;;5107430;28;19920;-60
2021/03/30 08:13:10;;;;;;;;;;;17.10;58.30;;;;;;5109034;28;20000;-61
2021/03/30 08:15:40;;;;;;;;;;;17.20;58.70;;;;;;5090647;28;19908;-62
2021/03/30 08:18:05;;;;;;;;;;;17.30;58.60;;;;;;5090712;28;19912;-61
2021/03/30 08:20:49;;;;;;;;;;;17.40;58.40;;;;;;5084351;28;19908;-60
2021/03/30 08:23:17;;;;;;;;;;;17.40;58.10;;;;;;5077067;28;19909;-60
2021/03/30 08:25:45;;;;;;;;;;;17.50;58.10;;;;;;5095152;28;19919;-60
2021/03/30 08:28:31;;;;;;;;;;;17.70;57.80;;;;;;5095015;28;19908;-60
2021/03/30 08:30:56;;;;;;;;;;;17.80;58.30;;;;;;5094826;28;20419;-61
2021/03/30 08:33:23;;;;;;;;;;;17.70;57.80;;;;;;5095038;28;19954;-60
2021/03/30 08:35:48;;;;;;;;;;;18.00;58.00;;;;;;5095213;28;19935;-61
2021/03/30 08:38:34;;;;;;;;;;;18.10;57.80;;;;;;5095461;28;20378;-60
2021/03/30 08:40:59;;;;;;;;;;;18.10;57.20;;;;;;5080487;28;19993;-63
2021/03/30 08:43:25;;;;;;;;;;;18.20;57.10;;;;;;5094866;28;19939;-62
2021/03/30 08:45:53;;;;;;;;;;;18.30;57.20;;;;;;5094712;28;19908;-62
2021/03/30 08:48:29;;;;;;;;;;;18.40;57.00;;;;;;5094735;28;19998;-61
2021/03/30 08:50:55;;;;;;;;;;;18.30;57.10;;;;;;5094758;28;19908;-62
2021/03/30 08:53:21;;;;;;;;;;;18.30;57.10;;;;;;5094598;28;20029;-62
2021/03/30 08:55:46;;;;;;;;;;;18.60;56.80;;;;;;5094666;28;19938;-62
2021/03/30 08:58:12;;;;;;;;;;;18.50;57.50;;;;;;5095038;28;20378;-62
2021/03/30 09:00:37;;;;;;;;;;;18.80;56.50;;;;;;5094780;28;19912;-62
2021/03/30 09:03:05;;;;;;;;;;;18.90;56.30;;;;;;5094424;28;20007;-65
2021/03/30 09:05:37;;;;;;;;;;;18.90;56.20;;;;;;5076338;28;19908;-65
2021/03/30 09:08:03;;;;;;;;;;;19.00;56.10;;;;;;5076155;28;19912;-61
2021/03/30 09:10:29;;;;;;;;;;;19.00;56.10;;;;;;5092713;28;20037;-61
2021/03/30 09:13:14;;;;;;;;;;;19.20;56.40;;;;;;5094492;28;20369;-62
2021/03/30 09:15:40;;;;;;;;;;;19.20;55.80;;;;;;5094182;28;20006;-62
2021/03/30 09:18:05;;;;;;;;;;;19.20;56.20;;;;;;5094228;28;19942;-62
2021/03/30 09:20:33;;;;;;;;;;;19.30;56.00;;;;;;5094401;28;19995;-61
2021/03/30 09:23:04;;;;;;;;;;;19.50;56.20;;;;;;5094315;28;20007;-60
2021/03/30 09:25:37;;;;;;;;;;;19.20;55.50;;;;;;5100754;28;19915;-61
2021/03/30 09:28:03;;;;;;;;;;;19.50;55.40;;;;;;5094168;28;20007;-61
2021/03/30 09:30:28;;;;;;;;;;;19.50;55.30;;;;;;5093925;28;20003;-59
2021/03/30 09:32:55;;;;;;;;;;;19.70;55.20;;;;;;5092781;28;19908;-60
2021/03/30 09:35:21;;;;;;;;;;;19.70;54.90;;;;;;5093782;28;19919;-60
2021/03/30 09:37:49;;;;;;;;;;;19.50;54.80;;;;;;5093614;28;19912;-60
2021/03/30 09:40:24;;;;;;;;;;;19.70;54.70;;;;;;5094063;28;19908;-60
2021/03/30 09:42:50;;;;;;;;;;;19.80;54.60;;;;;;5093664;28;19912;-60
2021/03/30 09:45:20;;;;;;;;;;;19.60;55.10;;;;;;5093502;28;19915;-60
2021/03/30 09:47:46;;;;;;;;;;;19.80;54.50;;;;;;5093563;28;19931;-60
2021/03/30 09:50:12;;;;;;;;;;;20.10;54.60;;;;;;5093565;28;19920;-59
2021/03/30 09:52:38;;;;;;;;;;;19.90;54.50;;;;;;5093415;28;19919;-60
2021/03/30 09:55:05;;;;;;;;;;;19.80;54.50;;;;;;5093673;28;19915;-60
2021/03/30 09:57:32;;;;;;;;;;;19.90;54.50;;;;;;5093204;28;19912;-60
2021/03/30 09:59:58;;;;;;;;;;;19.80;54.40;;;;;;5093605;28;19912;-60
2021/03/30 10:02:25;;;;;;;;;;;20.10;54.60;;;;;;5093534;28;19938;-58
2021/03/30 10:04:51;;;;;;;;;;;20.00;54.60;;;;;;5093367;28;19912;-60
2021/03/30 10:07:18;;;;;;;;;;;19.70;54.50;;;;;;5093359;28;19916;-60
2021/03/30 10:09:55;;;;;;;;;;;19.90;54.50;;;;;;5091294;28;20271;-60
2021/03/30 10:12:22;;;;;;;;;;;20.00;54.40;;;;;;5093319;28;20263;-60
2021/03/30 10:14:47;;;;;;;;;;;20.00;54.50;;;;;;5093020;28;19914;-60
2021/03/30 10:17:13;;;;;;;;;;;20.00;54.50;;;;;;5092975;28;19908;-61
2021/03/30 10:19:45;;;;;;;;;;;20.00;54.50;;;;;;5092873;28;19916;-63
2021/03/30 10:22:23;;;;;;;;;;;20.00;54.60;;;;;;5093122;28;20006;-63
2021/03/30 10:25:07;;;;;;;;;;;20.00;54.50;;;;;;5092748;28;19908;-63
2021/03/30 10:27:35;;;;;;;;;;;19.90;53.70;;;;;;5092971;28;20011;-64
2021/03/30 10:30:00;;;;;;;;;;;19.60;53.20;;;;;;5092992;28;19920;-63
2021/03/30 10:32:30;;;;;;;;;;;19.90;53.50;;;;;;5093095;28;20011;-63
2021/03/30 10:34:55;;;;;;;;;;;19.80;53.10;;;;;;5092707;28;19939;-63
2021/03/30 10:37:21;;;;;;;;;;;20.40;53.30;;;;;;5092821;28;19948;-62
2021/03/30 10:39:46;;;;;;;;;;;19.50;52.80;;;;;;5092578;28;19916;-63
2021/03/30 10:42:16;;;;;;;;;;;19.80;52.80;;;;;;5092728;28;19912;-64
2021/03/30 10:44:46;;;;;;;;;;;19.80;52.70;;;;;;5074538;28;20002;-65
2021/03/30 10:47:16;;;;;;;;;;;19.80;52.60;;;;;;5092506;28;19916;-65
2021/03/30 10:49:42;;;;;;;;;;;19.80;52.50;;;;;;5074129;28;19916;-64
2021/03/30 10:52:14;;;;;;;;;;;19.80;52.50;;;;;;5092456;28;19912;-65
2021/03/30 10:54:40;;;;;;;;;;;19.70;52.40;;;;;;5098636;28;20297;-65
2021/03/30 10:57:07;;;;;;;;;;;20.00;52.50;;;;;;5090473;28;19915;-65
2021/03/30 10:59:32;;;;;;;;;;;19.90;52.30;;;;;;5091323;28;19918;-64
2021/03/30 11:01:58;;;;;;;;;;;19.70;52.10;;;;;;5090944;28;19995;-65
2021/03/30 11:04:23;;;;;;;;;;;19.60;52.00;;;;;;5090921;28;20319;-65
2021/03/30 11:06:49;;;;;;;;;;;19.70;52.00;;;;;;5090765;28;19915;-65
2021/03/30 11:09:15;;;;;;;;;;;20.00;52.00;;;;;;5068821;28;20375;-65
2021/03/30 11:11:41;;;;;;;;;;;19.90;51.80;;;;;;5071819;28;19908;-65
2021/03/30 11:14:07;;;;;;;;;;;19.90;51.70;;;;;;5070838;28;19955;-65
2021/03/30 11:16:32;;;;;;;;;;;19.90;51.60;;;;;;5071039;28;20322;-64
2021/03/30 11:18:58;;;;;;;;;;;20.00;51.50;;;;;;5072266;28;19912;-65
2021/03/30 11:21:24;;;;;;;;;;;20.00;51.40;;;;;;5072053;28;19909;-64
2021/03/30 11:23:49;;;;;;;;;;;19.80;51.20;;;;;;5072021;28;19916;-65
2021/03/30 11:26:16;;;;;;;;;;;19.80;51.20;;;;;;5072060;28;19908;-64
2021/03/30 11:28:45;;;;;;;;;;;19.80;51.10;;;;;;5071879;28;20061;-65
2021/03/30 11:31:26;;;;;;;;;;;19.80;51.10;;;;;;5072290;28;20000;-64
2021/03/30 11:33:57;;;;;;;;;;;20.00;51.20;;;;;;5078981;28;19947;-65
2021/03/30 11:36:25;;;;;;;;;;;20.00;51.20;;;;;;5070663;28;19958;-65
2021/03/30 11:38:50;;;;;;;;;;;20.00;51.20;;;;;;5072178;28;19919;-64
2021/03/30 11:41:16;;;;;;;;;;;20.20;51.30;;;;;;5071788;28;19912;-64
2021/03/30 11:43:41;;;;;;;;;;;20.00;51.10;;;;;;5071864;28;19918;-64
2021/03/30 11:46:07;;;;;;;;;;;20.00;51.00;;;;;;5072029;28;19912;-64
2021/03/30 11:48:32;;;;;;;;;;;20.50;51.30;;;;;;5071916;28;19963;-64
2021/03/30 11:50:58;;;;;;;;;;;19.80;50.80;;;;;;5071943;28;19909;-64
2021/03/30 11:53:23;;;;;;;;;;;20.00;50.80;;;;;;5071875;28;20372;-65
2021/03/30 11:55:49;;;;;;;;;;;19.80;50.60;;;;;;5055204;28;19995;-64
2021/03/30 11:58:14;;;;;;;;;;;19.70;50.50;;;;;;5075573;28;19955;-64
2021/03/30 12:00:40;;;;;;;;;;;19.80;50.50;;;;;;5075507;28;20331;-64
2021/03/30 12:03:05;;;;;;;;;;;19.80;50.40;;;;;;5075350;28;20286;-64
2021/03/30 12:05:31;;;;;;;;;;;20.00;50.40;;;;;;5075533;28;19909;-64
2021/03/30 12:07:57;;;;;;;;;;;20.00;50.40;;;;;;5075015;28;20412;-64
2021/03/30 12:10:23;;;;;;;;;;;20.00;50.30;;;;;;5075422;28;20015;-64
2021/03/30 12:12:48;;;;;;;;;;;20.00;50.40;;;;;;5075414;28;20422;-63
2021/03/30 12:15:15;;;;;;;;;;;20.00;50.30;;;;;;5075047;28;19939;-64
2021/03/30 12:17:41;;;;;;;;;;;20.00;50.40;;;;;;5075159;28;19909;-60
2021/03/30 12:20:07;;;;;;;;;;;19.70;50.60;;;;;;5075248;28;20424;-60
2021/03/30 12:22:33;;;;;;;;;;;20.00;50.70;;;;;;5074899;28;19962;-60
2021/03/30 12:24:59;;;;;;;;;;;19.80;51.10;;;;;;5075162;28;19912;-61
2021/03/30 12:27:25;;;;;;;;;;;20.10;51.30;;;;;;5056914;28;19915;-60
2021/03/30 12:29:50;;;;;;;;;;;20.00;51.90;;;;;;5056884;28;19916;-61
2021/03/30 12:32:15;;;;;;;;;;;20.20;52.00;;;;;;5075131;28;19912;-62
2021/03/30 12:34:41;;;;;;;;;;;20.40;52.10;;;;;;5074842;28;19908;-62
2021/03/30 12:37:09;;;;;;;;;;;20.00;52.60;;;;;;5074754;28;20003;-62
2021/03/30 12:39:34;;;;;;;;;;;20.10;52.50;;;;;;5074703;28;19909;-61
2021/03/30 12:42:00;;;;;;;;;;;20.20;52.70;;;;;;5074758;28;19919;-60
2021/03/30 12:44:28;;;;;;;;;;;20.30;52.90;;;;;;5074130;28;19908;-64
2021/03/30 12:46:53;;;;;;;;;;;20.30;52.70;;;;;;5055037;28;20285;-60
2021/03/30 12:49:22;;;;;;;;;;;20.20;53.00;;;;;;5074222;28;20285;-62
2021/03/30 12:51:51;;;;;;;;;;;20.50;52.90;;;;;;5074424;28;19915;-62
2021/03/30 12:54:23;;;;;;;;;;;20.50;52.80;;;;;;5074436;28;19966;-62
2021/03/30 12:56:48;;;;;;;;;;;20.50;53.10;;;;;;5074451;28;19917;-62
2021/03/30 12:59:14;;;;;;;;;;;21.00;53.20;;;;;;5074716;28;19908;-61
2021/03/30 13:01:40;;;;;;;;;;;20.40;52.20;;;;;;5074656;28;19951;-65
2021/03/30 13:04:06;;;;;;;;;;;20.50;52.00;;;;;;5074674;28;20408;-63
2021/03/30 13:06:31;;;;;;;;;;;20.60;52.90;;;;;;5074334;28;19954;-63
2021/03/30 13:08:57;;;;;;;;;;;20.30;53.40;;;;;;5074927;28;20370;-62
2021/03/30 13:11:23;;;;;;;;;;;20.70;53.10;;;;;;5074338;28;19920;-62
2021/03/30 13:13:49;;;;;;;;;;;20.40;53.30;;;;;;5055144;28;19954;-64
2021/03/30 13:16:15;;;;;;;;;;;20.60;53.50;;;;;;5072783;28;20343;-63
2021/03/30 13:18:40;;;;;;;;;;;20.60;53.50;;;;;;5073917;28;20075;-64
2021/03/30 13:21:08;;;;;;;;;;;21.00;54.00;;;;;;5073583;28;20278;-62
2021/03/30 13:23:34;;;;;;;;;;;20.60;53.80;;;;;;5073567;28;19931;-62
2021/03/30 13:25:59;;;;;;;;;;;20.60;53.40;;;;;;5054628;28;19999;-61
2021/03/30 13:28:25;;;;;;;;;;;20.30;53.90;;;;;;5072769;28;19908;-61
2021/03/30 13:30:50;;;;;;;;;;;21.10;54.00;;;;;;5055016;28;19912;-63
2021/03/30 13:33:16;;;;;;;;;;;20.60;53.50;;;;;;5073887;28;19948;-63
2021/03/30 13:35:41;;;;;;;;;;;20.40;53.80;;;;;;5071974;28;19909;-61
2021/03/30 13:38:07;;;;;;;;;;;20.60;53.80;;;;;;5072401;28;19909;-60
2021/03/30 13:40:33;;;;;;;;;;;20.80;53.80;;;;;;5073443;28;19908;-62
2021/03/30 13:43:02;;;;;;;;;;;20.40;53.30;;;;;;5073407;28;19912;-61
2021/03/30 13:45:29;;;;;;;;;;;20.60;53.90;;;;;;5073421;28;19912;-63
2021/03/30 13:47:55;;;;;;;;;;;20.30;53.50;;;;;;5073557;28;20000;-60
2021/03/30 13:50:21;;;;;;;;;;;20.40;52.70;;;;;;5073232;28;20008;-60
2021/03/30 13:52:46;;;;;;;;;;;20.60;53.80;;;;;;5073237;28;19954;-63
2021/03/30 13:55:12;;;;;;;;;;;20.60;53.50;;;;;;5073757;28;19954;-63
2021/03/30 13:57:37;;;;;;;;;;;20.60;53.00;;;;;;5055131;28;19909;-61
2021/03/30 14:00:04;;;;;;;;;;;20.90;53.80;;;;;;5073266;28;19951;-60
2021/03/30 14:02:31;;;;;;;;;;;20.60;53.40;;;;;;5054910;28;19913;-62
2021/03/30 14:04:56;;;;;;;;;;;20.60;53.50;;;;;;5073232;28;19909;-62
2021/03/30 14:07:21;;;;;;;;;;;20.30;53.40;;;;;;5072925;28;20282;-63
2021/03/30 14:09:47;;;;;;;;;;;20.40;52.90;;;;;;5073563;28;20015;-62
2021/03/30 14:12:17;;;;;;;;;;;20.60;52.90;;;;;;5073055;28;19912;-60
2021/03/30 14:14:45;;;;;;;;;;;20.60;52.60;;;;;;5072987;28;19912;-61
2021/03/30 14:17:26;;;;;;;;;;;20.40;53.50;;;;;;5072799;28;19908;-63
2021/03/30 14:19:55;;;;;;;;;;;20.60;53.10;;;;;;5078946;28;19989;-60